createdAt,value
2022-09-13T00:02:09.986Z,10.75
2022-09-13T00:04:36.587Z,11.02
2022-09-13T00:07:03.017Z,10.75
2022-09-13T00:09:29.459Z,11.32
2022-09-13T00:11:55.894Z,10.30
2022-09-13T00:14:22.476Z,10.20
2022-09-13T00:16:48.974Z,8.63
2022-09-13T00:19:15.484Z,10.35
2022-09-13T00:21:41.923Z,9.47
2022-09-13T00:24:08.483Z,9.68
2022-09-13T00:26:34.886Z,9.73
2022-09-13T00:29:01.333Z,9.30
2022-09-13T00:31:28.074Z,10.23
2022-09-13T00:33:54.925Z,8.88
2022-09-13T00:36:21.365Z,9.50
2022-09-13T00:38:47.845Z,10.73
2022-09-13T00:41:14.996Z,10.50
2022-09-13T00:43:45.949Z,11.38
2022-09-13T00:46:14.050Z,11.10
2022-09-13T00:48:40.616Z,12.55
2022-09-13T00:51:07.104Z,11.05
2022-09-13T00:53:34.031Z,11.02
2022-09-13T00:56:01.783Z,12.63
2022-09-13T00:58:35.262Z,11.35
2022-09-13T01:01:02.550Z,11.60
2022-09-13T01:03:29.969Z,11.70
2022-09-13T01:05:58.125Z,11.35
2022-09-13T01:08:24.633Z,8.93
2022-09-13T01:10:51.301Z,11.82
2022-09-13T01:13:20.846Z,11.68
2022-09-13T01:15:47.333Z,11.38
2022-09-13T01:18:13.834Z,11.35
2022-09-13T01:20:48.483Z,10.32
2022-09-13T01:23:24.217Z,9.75
2022-09-13T01:25:50.643Z,10.90
2022-09-13T01:28:17.064Z,10.57
2022-09-13T01:30:44.641Z,9.98
2022-09-13T01:33:26.475Z,10.25
2022-09-13T01:36:22.523Z,9.00
2022-09-13T01:39:04.080Z,9.63
2022-09-13T01:41:33.877Z,9.05
2022-09-13T01:44:04.788Z,8.90
2022-09-13T01:46:32.857Z,9.53
2022-09-13T01:49:17.923Z,8.33
2022-09-13T01:51:47.227Z,8.25
2022-09-13T01:54:16.776Z,8.40
2022-09-13T01:56:46.125Z,9.90
2022-09-13T01:59:28.189Z,9.68
2022-09-13T02:01:56.304Z,8.55
2022-09-13T02:04:27.588Z,8.60
2022-09-13T02:07:05.415Z,8.50
2022-09-13T02:09:33.223Z,8.52
2022-09-13T02:12:02.318Z,7.53
2022-09-13T02:14:30.701Z,8.02
2022-09-13T02:17:00.838Z,7.85
2022-09-13T02:19:34.067Z,8.18
2022-09-13T02:22:01.084Z,9.27
2022-09-13T02:24:37.536Z,8.63
2022-09-13T02:27:05.454Z,8.63
2022-09-13T02:29:31.891Z,7.27
2022-09-13T02:32:01.540Z,8.07
2022-09-13T02:34:31.347Z,8.07
2022-09-13T02:36:57.791Z,7.75
2022-09-13T02:39:25.607Z,7.90
2022-09-13T02:41:53.191Z,8.40
2022-09-13T02:44:19.626Z,7.22
2022-09-13T02:47:05.489Z,8.17
2022-09-13T02:49:41.230Z,7.73
2022-09-13T02:52:14.634Z,8.33
2022-09-13T02:54:48.940Z,7.53
2022-09-13T02:57:17.571Z,7.93
2022-09-13T02:59:45.565Z,8.30
2022-09-13T03:02:14.065Z,8.15
2022-09-13T03:04:40.571Z,8.57
2022-09-13T03:07:10.297Z,8.05
2022-09-13T03:09:36.749Z,8.80
2022-09-13T03:12:13.883Z,8.57
2022-09-13T03:14:47.075Z,8.43
2022-09-13T03:17:16.541Z,9.13
2022-09-13T03:19:42.969Z,13.00
2022-09-13T03:22:28.613Z,11.03
2022-09-13T03:25:06.418Z,10.10
2022-09-13T03:27:45.073Z,10.90
2022-09-13T03:30:14.628Z,9.43
2022-09-13T03:32:57.500Z,12.07
2022-09-13T03:35:23.951Z,12.10
2022-09-13T03:37:50.376Z,11.70
2022-09-13T03:40:24.336Z,10.17
2022-09-13T03:42:52.345Z,11.30
2022-09-13T03:45:19.143Z,11.20
2022-09-13T03:47:45.609Z,11.97
2022-09-13T03:50:13.113Z,13.80
2022-09-13T03:52:42.255Z,15.13
2022-09-13T03:55:12.521Z,15.60
2022-09-13T03:57:38.981Z,16.37
2022-09-13T04:00:07.851Z,16.90
2022-09-13T04:02:34.645Z,16.50
2022-09-13T04:05:01.739Z,15.90
2022-09-13T04:07:28.198Z,15.03
2022-09-13T04:09:54.679Z,15.20
2022-09-13T04:12:21.112Z,14.63
2022-09-13T04:14:47.608Z,14.53
2022-09-13T04:17:14.417Z,14.83
2022-09-13T04:19:41.057Z,15.17
2022-09-13T04:22:07.555Z,13.80
2022-09-13T04:24:34.089Z,15.00
2022-09-13T04:27:01.004Z,14.57
2022-09-13T04:29:27.496Z,14.60
2022-09-13T04:31:54.277Z,15.40
2022-09-13T04:34:22.561Z,13.20
2022-09-13T04:36:49.233Z,12.97
2022-09-13T04:39:15.783Z,15.13
2022-09-13T04:41:44.984Z,14.00
2022-09-13T04:44:11.574Z,15.17
2022-09-13T04:46:38.056Z,14.67
2022-09-13T04:49:04.521Z,17.57
2022-09-13T04:51:31.013Z,15.27
2022-09-13T04:53:57.461Z,14.83
2022-09-13T04:56:24.109Z,16.33
2022-09-13T04:58:51.025Z,15.60
2022-09-13T05:01:17.839Z,15.67
2022-09-13T05:03:44.575Z,15.50
2022-09-13T05:06:11.986Z,15.03
2022-09-13T05:08:38.730Z,15.90
2022-09-13T05:11:05.403Z,14.43
2022-09-13T05:13:32.083Z,14.87
2022-09-13T05:15:59.080Z,14.77
2022-09-13T05:18:29.119Z,14.77
2022-09-13T05:20:55.921Z,15.23
2022-09-13T05:23:22.780Z,14.60
2022-09-13T05:25:52.985Z,13.47
2022-09-13T05:28:19.501Z,13.77
2022-09-13T05:30:53.886Z,14.70
2022-09-13T05:33:21.914Z,14.43
2022-09-13T05:35:48.323Z,14.23
2022-09-13T05:38:14.985Z,16.97
2022-09-13T05:40:41.518Z,17.47
2022-09-13T05:43:08.233Z,15.85
2022-09-13T05:45:34.769Z,15.68
2022-09-13T05:48:01.743Z,16.25
2022-09-13T05:50:56.914Z,15.45
2022-09-13T05:53:14.657Z,14.70
2022-09-13T05:55:41.070Z,14.38
2022-09-13T05:58:07.497Z,14.75
2022-09-13T06:00:34.263Z,15.20
2022-09-13T06:03:00.931Z,13.68
2022-09-13T06:05:31.644Z,12.93
2022-09-13T06:07:58.379Z,13.60
2022-09-13T06:10:25.501Z,11.98
2022-09-13T06:12:51.988Z,12.07
2022-09-13T06:15:18.856Z,12.52
2022-09-13T06:17:46.105Z,12.27
2022-09-13T06:20:12.629Z,11.15
2022-09-13T06:22:39.357Z,11.50
2022-09-13T06:25:06.100Z,10.85
2022-09-13T06:27:32.531Z,11.63
2022-09-13T06:29:58.976Z,10.50
2022-09-13T06:32:25.628Z,10.82
2022-09-13T06:34:52.290Z,11.77
2022-09-13T06:37:18.821Z,10.25
2022-09-13T06:39:45.365Z,11.00
2022-09-13T06:42:11.875Z,10.55
2022-09-13T06:44:38.353Z,10.43
2022-09-13T06:47:04.838Z,10.30
2022-09-13T06:49:31.775Z,9.55
2022-09-13T06:51:58.352Z,10.35
2022-09-13T06:54:24.828Z,9.15
2022-09-13T06:56:51.596Z,8.75
2022-09-13T06:59:18.533Z,8.70
2022-09-13T07:01:45.266Z,9.18
2022-09-13T07:04:15.803Z,8.20
2022-09-13T07:06:42.956Z,8.85
2022-09-13T07:09:11.077Z,9.63
2022-09-13T07:11:38.179Z,9.85
2022-09-13T07:14:04.863Z,8.70
2022-09-13T07:16:31.754Z,8.73
2022-09-13T07:18:58.443Z,8.45
2022-09-13T07:21:25.144Z,8.73
2022-09-13T07:23:51.925Z,8.07
2022-09-13T07:26:18.411Z,7.85
2022-09-13T07:28:45.514Z,8.48
2022-09-13T07:31:13.099Z,7.82
2022-09-13T07:33:40.213Z,8.27
2022-09-13T07:36:06.909Z,7.53
2022-09-13T07:38:36.665Z,7.55
2022-09-13T07:41:05.310Z,7.93
2022-09-13T07:43:31.954Z,7.95
2022-09-13T07:45:59.185Z,8.70
2022-09-13T07:48:28.599Z,8.07
2022-09-13T07:51:05.045Z,7.68
2022-09-13T07:53:31.948Z,8.32
2022-09-13T07:56:04.579Z,7.45
2022-09-13T07:58:31.232Z,7.32
2022-09-13T08:00:58.955Z,7.00
2022-09-13T08:03:25.492Z,6.75
2022-09-13T08:05:51.917Z,6.10
2022-09-13T08:08:20.154Z,5.70
2022-09-13T08:10:49.451Z,5.55
2022-09-13T08:13:16.672Z,5.93
2022-09-13T08:15:43.479Z,5.72
2022-09-13T08:18:10.022Z,5.05
2022-09-13T08:20:37.878Z,4.85
2022-09-13T08:23:06.169Z,5.25
2022-09-13T08:25:35.880Z,4.80
2022-09-13T08:28:02.783Z,5.10
2022-09-13T08:30:33.309Z,4.60
2022-09-13T08:33:00.495Z,3.55
2022-09-13T08:35:27.082Z,4.35
2022-09-13T08:37:56.492Z,4.82
2022-09-13T08:40:23.080Z,3.78
2022-09-13T08:43:06.919Z,4.43
2022-09-13T08:45:33.409Z,4.72
2022-09-13T08:48:02.311Z,4.38
2022-09-13T08:50:30.178Z,4.05
2022-09-13T08:53:02.327Z,3.03
2022-09-13T08:55:41.168Z,2.92
2022-09-13T08:58:19.283Z,3.10
2022-09-13T09:00:48.337Z,3.33
2022-09-13T09:03:33.592Z,3.22
2022-09-13T09:06:00.104Z,3.30
2022-09-13T09:08:27.363Z,3.63
2022-09-13T09:10:54.014Z,3.05
2022-09-13T09:13:30.532Z,3.40
2022-09-13T09:15:58.961Z,3.30
2022-09-13T09:18:25.949Z,3.70
2022-09-13T09:21:00.136Z,2.90
2022-09-13T09:23:29.084Z,2.40
2022-09-13T09:25:57.199Z,3.10
2022-09-13T09:28:25.135Z,3.00
2022-09-13T09:30:58.997Z,3.28
2022-09-13T09:33:28.358Z,3.38
2022-09-13T09:35:54.777Z,2.40
2022-09-13T09:38:21.218Z,2.67
2022-09-13T09:40:47.766Z,2.53
2022-09-13T09:43:15.637Z,2.78
2022-09-13T09:45:42.971Z,2.45
2022-09-13T09:48:13.212Z,2.53
2022-09-13T09:50:43.549Z,1.73
2022-09-13T09:53:19.184Z,1.83
2022-09-13T09:55:45.926Z,1.85
2022-09-13T09:58:16.855Z,1.85
2022-09-13T10:00:53.018Z,2.10
2022-09-13T10:03:29.255Z,1.92
2022-09-13T10:06:08.728Z,1.45
2022-09-13T10:08:36.677Z,1.67
2022-09-13T10:11:03.609Z,2.17
2022-09-13T10:13:31.904Z,1.63
2022-09-13T10:16:28.305Z,2.33
2022-09-13T10:18:55.762Z,1.92
2022-09-13T10:21:23.769Z,1.88
2022-09-13T10:23:50.584Z,2.30
2022-09-13T10:26:23.698Z,2.33
2022-09-13T10:28:50.197Z,2.47
2022-09-13T10:31:17.604Z,2.72
2022-09-13T10:33:50.473Z,2.63
2022-09-13T10:36:35.258Z,2.65
2022-09-13T10:39:06.288Z,2.40
2022-09-13T10:41:33.937Z,1.52
2022-09-13T10:44:01.193Z,2.28
2022-09-13T10:46:28.878Z,2.50
2022-09-13T10:48:58.402Z,2.33
2022-09-13T10:51:28.010Z,2.03
2022-09-13T10:54:15.285Z,2.10
2022-09-13T10:56:43.734Z,2.05
2022-09-13T10:59:25.665Z,2.22
2022-09-13T11:01:58.344Z,2.08
2022-09-13T11:04:48.334Z,2.03
2022-09-13T11:07:17.222Z,1.90
2022-09-13T11:09:52.770Z,2.28
2022-09-13T11:12:22.276Z,1.73
2022-09-13T11:14:52.139Z,1.65
2022-09-13T11:17:30.806Z,2.17
2022-09-13T11:19:57.493Z,2.35
2022-09-13T11:22:27.581Z,1.85
2022-09-13T11:25:13.866Z,1.23
2022-09-13T11:27:40.402Z,1.40
2022-09-13T11:30:15.744Z,1.50
2022-09-13T11:32:45.255Z,1.30
2022-09-13T11:35:30.645Z,1.40
2022-09-13T11:38:06.132Z,1.40
2022-09-13T11:40:35.317Z,1.77
2022-09-13T11:43:17.105Z,1.40
2022-09-13T11:45:46.652Z,1.60
2022-09-13T11:48:13.225Z,1.33
2022-09-13T11:50:58.601Z,1.40
2022-09-13T11:53:39.413Z,1.30
2022-09-13T11:56:10.715Z,1.52
2022-09-13T11:58:48.650Z,1.50
2022-09-13T12:01:17.509Z,1.35
2022-09-13T12:03:47.297Z,1.60
2022-09-13T12:06:15.785Z,1.30
2022-09-13T12:08:45.991Z,1.67
2022-09-13T12:11:16.010Z,1.60
2022-09-13T12:14:03.088Z,1.48
2022-09-13T12:16:37.030Z,1.67
2022-09-13T12:19:15.851Z,1.40
2022-09-13T12:21:42.472Z,1.67
2022-09-13T12:24:17.021Z,1.42
2022-09-13T12:26:52.780Z,1.80
2022-09-13T12:29:24.591Z,1.33
2022-09-13T12:31:51.109Z,1.60
2022-09-13T12:34:20.424Z,1.83
2022-09-13T12:36:49.943Z,1.75
2022-09-13T12:39:31.691Z,1.90
2022-09-13T12:41:58.131Z,1.33
2022-09-13T12:44:43.560Z,1.80
2022-09-13T12:47:16.516Z,1.50
2022-09-13T12:49:50.131Z,1.40
2022-09-13T12:52:21.390Z,1.73
2022-09-13T12:55:06.587Z,1.60
2022-09-13T12:57:40.036Z,1.50
2022-09-13T13:00:16.760Z,1.38
2022-09-13T13:02:45.074Z,1.77
2022-09-13T13:05:17.651Z,1.63
2022-09-13T13:07:49.773Z,1.63
2022-09-13T13:10:48.830Z,1.70
2022-09-13T13:13:22.721Z,1.70
2022-09-13T13:15:50.314Z,1.50
2022-09-13T13:18:20.881Z,1.65
2022-09-13T13:20:56.505Z,1.80
2022-09-13T13:23:23.719Z,1.73
2022-09-13T13:26:01.154Z,1.60
2022-09-13T13:28:43.082Z,1.92
2022-09-13T13:31:10.422Z,1.80
2022-09-13T13:33:49.946Z,1.83
2022-09-13T13:36:29.655Z,1.52
2022-09-13T13:38:56.657Z,1.67
2022-09-13T13:41:36.787Z,1.63
2022-09-13T13:44:24.024Z,1.48
2022-09-13T13:47:08.594Z,1.80
2022-09-13T13:49:35.445Z,1.58
2022-09-13T13:52:08.299Z,1.60
2022-09-13T13:54:50.419Z,1.73
2022-09-13T13:57:23.054Z,2.00
2022-09-13T13:59:50.028Z,1.67
2022-09-13T14:02:17.604Z,1.60
2022-09-13T14:05:03.252Z,1.83
2022-09-13T14:07:48.257Z,1.58
2022-09-13T14:10:18.047Z,1.70
2022-09-13T14:13:04.773Z,1.55
2022-09-13T14:15:51.530Z,2.08
2022-09-13T14:18:30.932Z,2.05
2022-09-13T14:21:17.691Z,1.90
2022-09-13T14:23:44.141Z,1.90
2022-09-13T14:26:10.699Z,1.67
2022-09-13T14:28:37.154Z,1.20
2022-09-13T14:31:03.999Z,1.75
2022-09-13T14:33:35.233Z,1.65
2022-09-13T14:36:03.319Z,1.35
2022-09-13T14:38:35.494Z,1.85
2022-09-13T14:41:15.492Z,1.63
2022-09-13T14:43:42.157Z,1.58
2022-09-13T14:46:13.691Z,1.85
2022-09-13T14:48:40.324Z,1.40
2022-09-13T14:51:09.192Z,1.60
2022-09-13T14:53:35.694Z,1.50
2022-09-13T14:56:05.236Z,1.30
2022-09-13T14:58:39.779Z,1.48
2022-09-13T15:01:07.361Z,1.30
2022-09-13T15:03:34.346Z,1.33
2022-09-13T15:06:01.700Z,1.27
2022-09-13T15:08:34.712Z,1.35
2022-09-13T15:11:01.912Z,1.33
2022-09-13T15:13:28.520Z,1.25
2022-09-13T15:15:55.134Z,1.15
2022-09-13T15:18:23.902Z,1.40
2022-09-13T15:20:56.653Z,1.38
2022-09-13T15:23:28.205Z,1.40
2022-09-13T15:26:15.031Z,1.30
2022-09-13T15:28:41.626Z,1.42
2022-09-13T15:31:08.214Z,1.25
2022-09-13T15:33:35.863Z,1.20
2022-09-13T15:36:20.701Z,1.20
2022-09-13T15:38:58.062Z,1.27
2022-09-13T15:41:28.132Z,1.13
2022-09-13T15:43:54.598Z,1.38
2022-09-13T15:46:21.091Z,1.38
2022-09-13T15:48:51.180Z,1.42
2022-09-13T15:51:17.891Z,1.20
2022-09-13T15:53:44.735Z,1.73
2022-09-13T15:56:13.244Z,1.33
2022-09-13T15:58:39.795Z,1.42
2022-09-13T16:01:06.838Z,1.48
2022-09-13T16:03:33.411Z,1.60
2022-09-13T16:05:59.938Z,1.58
2022-09-13T16:08:26.373Z,1.40
2022-09-13T16:10:52.883Z,1.50
2022-09-13T16:13:19.396Z,1.67
2022-09-13T16:15:45.928Z,1.65
2022-09-13T16:18:12.626Z,1.40
2022-09-13T16:20:39.379Z,1.60
2022-09-13T16:23:05.872Z,1.70
2022-09-13T16:25:32.420Z,1.50
2022-09-13T16:27:59.907Z,1.65
2022-09-13T16:30:30.496Z,1.30
2022-09-13T16:32:57.035Z,1.67
2022-09-13T16:35:24.638Z,1.80
2022-09-13T16:37:52.180Z,1.35
2022-09-13T16:40:19.281Z,1.63
2022-09-13T16:42:46.444Z,1.20
2022-09-13T16:45:12.979Z,1.67
2022-09-13T16:47:39.570Z,1.70
2022-09-13T16:50:06.624Z,2.00
2022-09-13T16:52:33.510Z,2.00
2022-09-13T16:55:00.210Z,1.67
2022-09-13T16:57:26.889Z,2.15
2022-09-13T16:59:54.355Z,2.05
2022-09-13T17:02:21.428Z,1.63
2022-09-13T17:04:48.797Z,1.77
2022-09-13T17:07:15.894Z,2.20
2022-09-13T17:09:43.488Z,1.63
2022-09-13T17:12:11.425Z,2.33
2022-09-13T17:14:39.495Z,1.85
2022-09-13T17:17:07.073Z,2.10
2022-09-13T17:19:37.010Z,1.88
2022-09-13T17:22:04.577Z,2.42
2022-09-13T17:24:31.582Z,2.38
2022-09-13T17:27:01.209Z,2.65
2022-09-13T17:29:31.450Z,2.38
2022-09-13T17:31:58.537Z,2.13
2022-09-13T17:34:25.580Z,2.15
2022-09-13T17:36:52.683Z,2.17
2022-09-13T17:39:19.827Z,2.30
2022-09-13T17:41:49.220Z,2.00
2022-09-13T17:44:16.471Z,2.25
2022-09-13T17:46:43.239Z,1.83
2022-09-13T17:49:10.364Z,2.50
2022-09-13T17:51:37.549Z,2.40
2022-09-13T17:54:06.162Z,2.70
2022-09-13T17:56:34.208Z,2.70
2022-09-13T17:59:09.647Z,2.22
2022-09-13T18:01:37.406Z,3.25
2022-09-13T18:04:04.151Z,2.45
2022-09-13T18:06:30.707Z,2.60
2022-09-13T18:08:58.916Z,2.35
2022-09-13T18:11:26.062Z,3.08
2022-09-13T18:13:52.645Z,2.83
2022-09-13T18:16:26.309Z,3.08
2022-09-13T18:18:53.509Z,2.42
2022-09-13T18:21:21.284Z,3.15
2022-09-13T18:23:48.406Z,3.38
2022-09-13T18:26:16.001Z,3.33
2022-09-13T18:28:45.575Z,3.20
2022-09-13T18:31:16.782Z,3.15
2022-09-13T18:33:43.617Z,3.30
2022-09-13T18:36:11.630Z,3.20
2022-09-13T18:38:41.886Z,3.38
2022-09-13T18:41:14.972Z,3.45
2022-09-13T18:43:42.170Z,2.72
2022-09-13T18:46:10.508Z,3.25
2022-09-13T18:48:39.529Z,2.72
2022-09-13T18:51:06.351Z,2.85
2022-09-13T18:53:35.134Z,2.95
2022-09-13T18:56:03.589Z,3.42
2022-09-13T18:58:32.284Z,3.47
2022-09-13T19:01:06.770Z,3.80
2022-09-13T19:03:36.043Z,3.25
2022-09-13T19:06:11.977Z,2.92
2022-09-13T19:08:38.606Z,2.90
2022-09-13T19:11:19.175Z,3.17
2022-09-13T19:13:54.507Z,3.28
2022-09-13T19:16:22.271Z,3.60
2022-09-13T19:18:54.840Z,3.83
2022-09-13T19:21:22.944Z,3.35
2022-09-13T19:23:59.478Z,4.05
2022-09-13T19:26:31.345Z,3.75
2022-09-13T19:29:01.141Z,4.03
2022-09-13T19:31:27.976Z,3.38
2022-09-13T19:33:56.475Z,5.88
2022-09-13T19:36:24.508Z,5.15
2022-09-13T19:38:52.277Z,4.20
2022-09-13T19:41:20.689Z,3.92
2022-09-13T19:50:13.349Z,4.43
2022-09-13T19:52:43.703Z,4.20
2022-09-13T19:55:10.612Z,4.40
2022-09-13T19:57:37.099Z,4.90
2022-09-13T20:00:07.012Z,5.07
2022-09-13T20:02:37.062Z,4.75
2022-09-13T20:12:41.547Z,4.45
2022-09-13T20:18:33.948Z,4.80
2022-09-13T20:21:04.811Z,4.10
2022-09-13T20:23:34.437Z,4.55
2022-09-13T20:26:01.543Z,4.38
2022-09-13T20:28:29.035Z,3.78
2022-09-13T20:30:56.566Z,3.55
2022-09-13T20:33:24.154Z,3.85
2022-09-13T20:35:50.807Z,3.13
2022-09-13T20:38:18.880Z,3.70
2022-09-13T20:40:46.587Z,3.47
2022-09-13T20:43:13.953Z,3.60
2022-09-13T20:45:41.205Z,3.55
2022-09-13T20:48:08.153Z,3.15
2022-09-13T20:50:35.329Z,2.67
2022-09-13T20:53:03.361Z,3.20
2022-09-13T20:55:30.015Z,3.72
2022-09-13T20:57:56.567Z,3.42
2022-09-13T21:00:23.597Z,3.03
2022-09-13T21:02:50.173Z,3.28
2022-09-13T21:05:16.881Z,3.28
2022-09-13T21:08:02.253Z,2.97
2022-09-13T21:10:29.054Z,2.78
2022-09-13T21:12:56.787Z,2.95
2022-09-13T21:15:23.306Z,2.72
2022-09-13T21:17:50.351Z,2.83
2022-09-13T21:20:17.025Z,2.17
2022-09-13T21:22:45.165Z,2.83
2022-09-13T21:25:11.679Z,2.60
2022-09-13T21:27:38.113Z,2.90
2022-09-13T21:30:04.856Z,2.97
2022-09-13T21:32:31.359Z,2.22
2022-09-13T21:34:57.846Z,2.47
2022-09-13T21:37:24.299Z,2.28
2022-09-13T21:39:50.922Z,2.30
2022-09-13T21:42:17.416Z,2.70
2022-09-13T21:44:43.843Z,2.20
2022-09-13T21:47:10.521Z,2.33
2022-09-13T21:49:36.994Z,2.75
2022-09-13T21:52:03.459Z,2.40
2022-09-13T21:54:29.969Z,2.42
2022-09-13T21:56:56.422Z,2.65
2022-09-13T21:59:23.276Z,2.95
2022-09-13T22:01:51.412Z,2.50
2022-09-13T22:04:19.314Z,2.67
2022-09-13T22:06:46.168Z,2.30
2022-09-13T22:09:12.827Z,2.47
2022-09-13T22:11:40.079Z,2.13
2022-09-13T22:14:07.315Z,2.20
2022-09-13T22:16:34.689Z,2.53
2022-09-13T22:19:07.949Z,2.55
2022-09-13T22:21:36.157Z,2.00
2022-09-13T22:24:03.160Z,2.65
2022-09-13T22:26:30.263Z,2.63
2022-09-13T22:28:58.336Z,1.80
2022-09-13T22:31:26.021Z,2.58
2022-09-13T22:33:53.024Z,2.28
2022-09-13T22:36:19.867Z,2.95
2022-09-13T22:38:47.076Z,2.15
2022-09-13T22:41:15.477Z,2.38
2022-09-13T22:44:46.608Z,1.92
2022-09-13T22:47:13.926Z,2.03
2022-09-13T22:49:40.972Z,1.95
2022-09-13T22:52:08.212Z,2.13
2022-09-13T22:54:35.234Z,2.20
2022-09-13T22:57:01.784Z,2.10
2022-09-13T22:59:28.294Z,1.77
2022-09-13T23:01:54.763Z,2.05
2022-09-13T23:04:21.240Z,1.70
2022-09-13T23:06:47.750Z,2.17
2022-09-13T23:09:14.928Z,2.10
2022-09-13T23:11:42.250Z,1.90
2022-09-13T23:14:12.315Z,2.03
2022-09-13T23:16:39.826Z,2.38
2022-09-13T23:19:06.322Z,2.50
2022-09-13T23:21:33.798Z,2.45
2022-09-13T23:24:00.469Z,2.30
2022-09-13T23:26:27.028Z,1.92
2022-09-13T23:28:55.552Z,1.83
2022-09-13T23:31:23.381Z,1.90
2022-09-13T23:33:50.462Z,2.17
2022-09-13T23:36:17.705Z,1.83
2022-09-13T23:38:47.784Z,1.90
2022-09-13T23:41:14.851Z,1.67
2022-09-13T23:43:41.314Z,2.15
2022-09-13T23:46:07.899Z,2.40
2022-09-13T23:48:35.221Z,2.08
2022-09-13T23:51:04.509Z,1.95
2022-09-13T23:53:30.990Z,1.70
2022-09-13T23:55:57.514Z,1.98
2022-09-13T23:58:23.998Z,2.05
